METAR
METAR

METAR

METAR EPSY 090200Z 23002KT CAVOK 06/06 Q1016=
TAF EPSY 082330Z 0900/0909 VRB03KT CAVOK PROB40 TEMPO 0900/0904 4000 BR=
Ostrzeżenia
Ostrzeżenia

Ostrzeżenia

OSTRZEZENIE LOTNISKOWE DLA LOTNISKA SZYMANY WAZNOSC OD: 12:25 08-07-2020 UTC DO: 14:00 08-07-2020 UTC ZJAWISKO: BURZA. PRZEBIEG: W REJONIE LOTNISKA EPSY ISTNIEJE RYZYKO WYSTAPIENIA POJEDYNCZEJ BURZY. PODCZAS BURZY PORYWY WIATRU DO 30 KT, OPADY DESZCZU/ KRUPY SNIEZNEJ OGRANICZAJACE WIDZIALNOSC DO 2000-1000 M. OPRACOWAL: LUKASZ NAPIORKOWSKI DNIA 08-07-2020 12:08 UTC NR OSTRZEZENIE: 190/2020.